createdAt,value
2023-03-04T00:00:28.017Z,12.20
2023-03-04T00:03:56.670Z,11.80
2023-03-04T00:07:00.731Z,13.70
2023-03-04T00:10:06.127Z,11.40
2023-03-04T00:13:10.084Z,11.80
2023-03-04T00:16:14.129Z,12.90
2023-03-04T00:19:18.082Z,13.00
2023-03-04T00:22:21.974Z,13.40
2023-03-04T00:25:26.045Z,11.70
2023-03-04T00:28:30.061Z,13.20
2023-03-04T00:31:34.119Z,12.00
2023-03-04T00:34:38.196Z,11.60
2023-03-04T00:37:42.596Z,13.90
2023-03-04T00:43:51.183Z,14.70
2023-03-04T00:46:55.182Z,12.20
2023-03-04T00:49:59.197Z,13.00
2023-03-04T00:53:03.595Z,13.10
2023-03-04T00:56:07.900Z,13.00
2023-03-04T00:59:11.960Z,13.80
2023-03-04T01:02:16.087Z,14.10
2023-03-04T01:05:20.213Z,13.50
2023-03-04T01:08:24.220Z,14.40
2023-03-04T01:11:30.823Z,13.20
2023-03-04T01:14:35.318Z,13.70
2023-03-04T01:17:39.658Z,14.50
2023-03-04T01:20:43.641Z,11.80
2023-03-04T01:23:47.871Z,14.20
2023-03-04T01:26:51.888Z,13.00
2023-03-04T01:29:55.901Z,12.30
2023-03-04T01:33:00.123Z,11.50
2023-03-04T01:36:04.509Z,12.00
2023-03-04T01:39:08.453Z,13.30
2023-03-04T01:42:18.843Z,11.10
2023-03-04T01:45:22.949Z,11.50
2023-03-04T01:48:38.125Z,10.30
2023-03-04T01:51:50.836Z,10.70
2023-03-04T01:54:55.370Z,10.30
2023-03-04T01:57:59.398Z,7.70
2023-03-04T02:01:03.556Z,13.20
2023-03-04T02:04:10.064Z,12.30
2023-03-04T02:07:14.098Z,11.60
2023-03-04T02:10:18.320Z,13.20
2023-03-04T02:13:22.643Z,12.90
2023-03-04T02:16:27.564Z,11.90
2023-03-04T02:19:43.405Z,9.60
2023-03-04T02:22:58.137Z,10.30
2023-03-04T02:26:22.122Z,11.50
2023-03-04T02:29:28.237Z,10.70
2023-03-04T02:32:33.371Z,9.60
2023-03-04T02:35:37.418Z,10.80
2023-03-04T02:38:41.939Z,9.20
2023-03-04T02:41:49.927Z,10.00
2023-03-04T02:45:01.330Z,8.40
2023-03-04T02:48:06.193Z,11.40
2023-03-04T02:51:10.234Z,9.10
2023-03-04T02:54:16.584Z,11.90
2023-03-04T02:57:20.708Z,12.40
2023-03-04T03:00:29.467Z,11.60
2023-03-04T03:03:33.429Z,10.10
2023-03-04T03:06:37.459Z,10.50
2023-03-04T03:09:41.494Z,13.90
2023-03-04T03:12:45.532Z,11.90
2023-03-04T03:15:50.218Z,10.10
2023-03-04T03:18:54.662Z,9.40
2023-03-04T03:21:59.032Z,12.10
2023-03-04T03:25:05.464Z,11.40
2023-03-04T03:28:09.966Z,11.70
2023-03-04T03:31:15.238Z,11.30
2023-03-04T03:34:22.806Z,11.30
2023-03-04T03:37:27.048Z,13.60
2023-03-04T03:40:30.958Z,12.60
2023-03-04T03:43:34.983Z,11.30
2023-03-04T03:46:38.997Z,9.70
2023-03-04T03:49:43.009Z,11.60
2023-03-04T03:52:47.030Z,12.10
2023-03-04T03:55:51.035Z,12.10
2023-03-04T03:58:54.994Z,11.70
2023-03-04T04:01:59.034Z,11.70
2023-03-04T04:05:03.658Z,11.10
2023-03-04T04:08:07.821Z,12.10
2023-03-04T04:11:12.832Z,12.10
2023-03-04T04:14:17.083Z,11.30
2023-03-04T04:17:21.381Z,11.30
2023-03-04T04:20:26.288Z,9.60
2023-03-04T04:23:30.822Z,12.60
2023-03-04T04:26:34.780Z,11.80
2023-03-04T04:29:39.130Z,10.50
2023-03-04T04:32:43.119Z,10.00
2023-03-04T04:35:47.070Z,12.00
2023-03-04T04:38:51.044Z,13.10
2023-03-04T04:41:55.065Z,10.40
2023-03-04T04:44:58.990Z,11.10
2023-03-04T04:48:03.055Z,8.50
2023-03-04T04:51:07.081Z,12.30
2023-03-04T04:54:12.450Z,10.90
2023-03-04T04:57:16.397Z,12.80
2023-03-04T05:00:21.278Z,5.90
2023-03-04T05:06:29.353Z,9.40
2023-03-04T05:09:33.435Z,9.90
2023-03-04T05:12:37.479Z,10.10
2023-03-04T05:15:41.569Z,10.50
2023-03-04T05:18:45.816Z,10.80
2023-03-04T05:21:49.841Z,11.40
2023-03-04T05:24:53.881Z,11.30
2023-03-04T05:27:58.122Z,10.30
2023-03-04T05:31:02.824Z,10.00
2023-03-04T05:34:06.737Z,9.80
2023-03-04T05:37:10.683Z,10.40
2023-03-04T05:40:14.766Z,9.70
2023-03-04T05:43:18.759Z,9.00
2023-03-04T05:46:25.912Z,10.50
2023-03-04T05:49:30.068Z,11.00
2023-03-04T05:52:34.086Z,12.10
2023-03-04T05:55:38.143Z,10.40
2023-03-04T05:58:42.801Z,11.50
2023-03-04T06:01:48.293Z,12.30
2023-03-04T06:04:52.347Z,10.00
2023-03-04T06:07:56.317Z,10.50
2023-03-04T06:11:00.634Z,10.10
2023-03-04T06:14:05.464Z,10.40
2023-03-04T06:20:13.319Z,8.10
2023-03-04T06:23:17.529Z,9.40
2023-03-04T06:26:21.740Z,8.30
2023-03-04T06:29:25.864Z,9.00
2023-03-04T06:32:29.832Z,9.10
2023-03-04T06:35:33.772Z,8.30
2023-03-04T06:38:37.668Z,11.10
2023-03-04T06:41:41.725Z,10.80
2023-03-04T06:44:45.730Z,10.70
2023-03-04T06:47:49.694Z,10.00
2023-03-04T06:50:53.608Z,8.10
2023-03-04T06:53:57.649Z,11.20
2023-03-04T06:57:01.591Z,9.40
2023-03-04T07:00:06.377Z,9.10
2023-03-04T07:03:12.981Z,10.50
2023-03-04T07:06:20.080Z,10.40
2023-03-04T07:09:24.641Z,10.60
2023-03-04T07:12:28.632Z,10.00
2023-03-04T07:15:33.054Z,6.10
2023-03-04T07:18:37.478Z,10.80
2023-03-04T07:21:41.423Z,11.00
2023-03-04T07:24:45.409Z,10.10
2023-03-04T07:27:49.421Z,8.60
2023-03-04T07:30:53.437Z,9.10
2023-03-04T07:34:02.873Z,10.70
2023-03-04T07:37:07.047Z,9.70
2023-03-04T07:40:11.933Z,10.80
2023-03-04T07:43:15.831Z,9.20
2023-03-04T07:46:19.797Z,10.80
2023-03-04T07:49:23.719Z,10.70
2023-03-04T07:52:27.693Z,6.90
2023-03-04T07:55:31.811Z,9.00
2023-03-04T07:58:35.751Z,8.80
2023-03-04T08:01:39.760Z,9.60
2023-03-04T08:04:43.763Z,7.80
2023-03-04T08:07:47.703Z,8.00
2023-03-04T08:10:51.688Z,9.20
2023-03-04T08:13:57.408Z,8.30
2023-03-04T08:17:01.354Z,7.70
2023-03-04T08:20:06.250Z,8.90
2023-03-04T08:23:10.893Z,9.50
2023-03-04T08:29:24.324Z,7.90
2023-03-04T08:32:28.336Z,8.10
2023-03-04T08:35:33.225Z,9.90
2023-03-04T08:38:37.614Z,8.30
2023-03-04T08:41:42.551Z,7.70
2023-03-04T08:44:46.606Z,8.80
2023-03-04T08:47:51.339Z,8.10
2023-03-04T08:50:55.479Z,6.90
2023-03-04T08:53:59.684Z,7.80
2023-03-04T08:57:04.525Z,8.20
2023-03-04T09:00:09.565Z,8.50
2023-03-04T09:03:15.155Z,7.30
2023-03-04T09:06:19.547Z,7.40
2023-03-04T09:09:23.499Z,7.80
2023-03-04T09:12:27.543Z,7.60
2023-03-04T09:15:31.686Z,8.90
2023-03-04T09:18:35.695Z,8.30
2023-03-04T09:21:39.671Z,7.90
2023-03-04T09:24:43.623Z,7.60
2023-03-04T09:27:47.585Z,8.50
2023-03-04T09:30:51.656Z,8.50
2023-03-04T09:33:57.815Z,8.10
2023-03-04T09:37:01.939Z,9.50
2023-03-04T09:40:08.248Z,7.80
2023-03-04T09:43:21.039Z,7.00
2023-03-04T09:46:34.229Z,8.30
2023-03-04T09:49:42.582Z,7.50
2023-03-04T09:52:58.466Z,7.40
2023-03-04T09:56:04.033Z,9.10
2023-03-04T09:59:29.533Z,8.40
2023-03-04T10:03:12.718Z,8.80
2023-03-04T10:06:20.332Z,8.30
2023-03-04T10:09:42.700Z,8.50
2023-03-04T10:12:50.031Z,11.10
2023-03-04T10:15:55.525Z,9.30
2023-03-04T10:19:18.732Z,9.50
2023-03-04T10:22:34.616Z,9.30
2023-03-04T10:25:44.220Z,7.90
2023-03-04T10:28:49.045Z,8.10
2023-03-04T10:31:56.371Z,8.30
2023-03-04T10:35:00.463Z,7.80
2023-03-04T10:38:14.026Z,9.40
2023-03-04T10:41:22.976Z,8.50
2023-03-04T10:44:28.649Z,7.10
2023-03-04T10:47:34.207Z,7.90
2023-03-04T10:50:38.300Z,8.20
2023-03-04T10:53:43.603Z,6.60
2023-03-04T10:57:05.690Z,7.00
2023-03-04T11:00:18.601Z,7.10
2023-03-04T11:03:29.809Z,8.00
2023-03-04T11:06:41.035Z,5.60
2023-03-04T11:09:45.796Z,6.00
2023-03-04T11:12:56.076Z,6.20
2023-03-04T11:16:04.363Z,7.00
2023-03-04T11:19:16.781Z,6.00
2023-03-04T11:22:23.473Z,6.30
2023-03-04T11:25:32.983Z,7.30
2023-03-04T11:28:47.482Z,7.20
2023-03-04T11:31:58.189Z,6.20
2023-03-04T11:35:18.866Z,6.70
2023-03-04T11:38:32.464Z,5.20
2023-03-04T11:41:41.640Z,6.20
2023-03-04T11:44:45.615Z,5.90
2023-03-04T11:48:12.846Z,6.70
2023-03-04T11:51:29.042Z,5.60
2023-03-04T11:54:48.315Z,6.50
2023-03-04T11:58:38.417Z,5.70
2023-03-04T12:02:12.825Z,6.80
2023-03-04T12:05:39.706Z,5.60
2023-03-04T12:09:14.528Z,5.70
2023-03-04T12:12:47.009Z,6.40
2023-03-04T12:16:35.566Z,5.90
2023-03-04T12:20:17.970Z,7.00
2023-03-04T12:23:44.012Z,6.40
2023-03-04T12:27:11.997Z,7.70
2023-03-04T12:30:35.762Z,7.40
2023-03-04T12:34:01.294Z,7.10
2023-03-04T12:37:14.179Z,6.10
2023-03-04T12:40:30.273Z,7.60
2023-03-04T12:43:50.574Z,7.20
2023-03-04T12:47:00.030Z,6.80
2023-03-04T12:50:29.118Z,7.80
2023-03-04T12:54:06.771Z,7.40
2023-03-04T12:57:17.394Z,4.90
2023-03-04T13:03:58.756Z,8.10
2023-03-04T13:07:09.232Z,8.50
2023-03-04T13:10:16.978Z,8.30
2023-03-04T13:13:34.962Z,8.40
2023-03-04T13:16:45.709Z,6.80
2023-03-04T13:19:57.544Z,7.70
2023-03-04T13:23:26.021Z,6.80
2023-03-04T13:26:33.601Z,7.60
2023-03-04T13:29:38.352Z,7.50
2023-03-04T13:35:50.421Z,6.40
2023-03-04T13:39:14.366Z,6.30
2023-03-04T13:42:42.965Z,5.50
2023-03-04T13:45:47.076Z,4.70
2023-03-04T13:48:51.110Z,5.10
2023-03-04T13:51:55.203Z,5.60
2023-03-04T13:55:33.022Z,4.50
2023-03-04T13:58:39.475Z,3.80
2023-03-04T14:01:43.516Z,3.10
2023-03-04T14:05:00.902Z,2.70
2023-03-04T14:08:18.897Z,2.90
2023-03-04T14:11:33.012Z,2.50
2023-03-04T14:14:51.802Z,3.00
2023-03-04T14:18:01.584Z,3.00
2023-03-04T14:21:07.197Z,3.00
2023-03-04T14:24:14.799Z,3.00
2023-03-04T14:27:18.750Z,3.20
2023-03-04T14:30:41.737Z,3.70
2023-03-04T14:33:50.393Z,4.20
2023-03-04T14:36:54.609Z,3.90
2023-03-04T14:39:59.822Z,4.40
2023-03-04T14:43:10.640Z,4.70
2023-03-04T14:46:18.987Z,4.90
2023-03-04T14:49:23.360Z,7.70
2023-03-04T14:52:40.488Z,5.20
2023-03-04T14:56:05.680Z,3.70
2023-03-04T14:59:13.370Z,4.80
2023-03-04T15:02:35.685Z,4.30
2023-03-04T15:05:39.875Z,5.20
2023-03-04T15:08:44.988Z,5.80
2023-03-04T15:11:50.680Z,4.90
2023-03-04T15:14:58.792Z,5.80
2023-03-04T15:18:14.688Z,5.50
2023-03-04T15:21:21.686Z,6.00
2023-03-04T15:24:25.624Z,6.00
2023-03-04T15:27:31.320Z,5.80
2023-03-04T15:30:35.582Z,5.30
2023-03-04T15:33:39.684Z,6.10
2023-03-04T15:36:49.385Z,5.70
2023-03-04T15:39:56.370Z,6.00
2023-03-04T15:43:03.012Z,5.20
2023-03-04T15:46:07.068Z,3.60
2023-03-04T15:49:11.985Z,3.70
2023-03-04T15:52:21.367Z,2.40
2023-03-04T15:55:25.672Z,1.70
2023-03-04T15:58:34.867Z,2.10
2023-03-04T16:01:39.605Z,1.80
2023-03-04T16:04:43.724Z,1.80
2023-03-04T16:07:50.777Z,1.40
2023-03-04T16:10:54.922Z,2.00
2023-03-04T16:13:58.914Z,2.30
2023-03-04T16:17:03.237Z,1.50
2023-03-04T16:20:08.139Z,1.50
2023-03-04T16:23:19.522Z,1.30
2023-03-04T16:26:25.700Z,1.30
2023-03-04T16:29:29.850Z,2.00
2023-03-04T16:32:35.138Z,1.90
2023-03-04T16:35:39.782Z,2.30
2023-03-04T16:41:48.333Z,2.60
2023-03-04T16:44:52.587Z,3.10
2023-03-04T16:47:56.652Z,2.60
2023-03-04T16:51:03.998Z,2.00
2023-03-04T16:54:16.803Z,1.40
2023-03-04T16:57:20.941Z,2.20
2023-03-04T17:00:28.104Z,2.10
2023-03-04T17:03:32.351Z,1.80
2023-03-04T17:06:40.018Z,3.20
2023-03-04T17:09:45.189Z,1.70
2023-03-04T17:12:50.626Z,1.90
2023-03-04T17:15:54.580Z,1.60
2023-03-04T17:18:58.776Z,2.00
2023-03-04T17:22:02.989Z,1.80
2023-03-04T17:25:08.011Z,1.50
2023-03-04T17:28:11.947Z,1.70
2023-03-04T17:31:18.937Z,2.60
2023-03-04T17:34:23.048Z,2.50
2023-03-04T17:37:27.278Z,2.50
2023-03-04T17:40:32.807Z,2.00
2023-03-04T17:43:36.919Z,1.90
2023-03-04T17:46:40.904Z,2.60
2023-03-04T17:49:44.870Z,2.20
2023-03-04T17:52:48.909Z,1.80
2023-03-04T17:56:01.200Z,3.10
2023-03-04T17:59:11.663Z,2.90
2023-03-04T18:05:20.242Z,3.20
2023-03-04T18:08:24.394Z,2.50
2023-03-04T18:11:29.143Z,2.40
2023-03-04T18:17:37.294Z,1.70
2023-03-04T18:20:41.415Z,2.30
2023-03-04T18:23:45.837Z,3.00
2023-03-04T18:26:49.931Z,3.60
2023-03-04T18:29:53.970Z,2.70
2023-03-04T18:33:02.809Z,2.30
2023-03-04T18:36:09.900Z,2.10
2023-03-04T18:39:14.109Z,2.50
2023-03-04T18:42:18.076Z,2.10
2023-03-04T18:45:22.737Z,3.10
2023-03-04T18:48:27.285Z,3.10
2023-03-04T18:51:31.819Z,2.00
2023-03-04T18:54:35.781Z,1.90
2023-03-04T18:57:42.887Z,4.30
2023-03-04T19:00:46.957Z,4.40
2023-03-04T19:03:52.755Z,4.70
2023-03-04T19:06:56.905Z,3.50
2023-03-04T19:10:01.168Z,2.20
2023-03-04T19:13:05.434Z,3.00
2023-03-04T19:16:09.536Z,2.20
2023-03-04T19:19:15.329Z,2.10
2023-03-04T19:22:19.353Z,1.20
2023-03-04T19:25:23.358Z,2.50
2023-03-04T19:28:27.309Z,2.30
2023-03-04T19:31:31.289Z,2.50
2023-03-04T19:34:35.508Z,2.30
2023-03-04T19:37:39.487Z,1.80
2023-03-04T19:40:46.935Z,1.70
2023-03-04T19:43:50.935Z,1.00
2023-03-04T19:46:54.830Z,1.40
2023-03-04T19:49:58.949Z,1.60
2023-03-04T19:53:03.104Z,1.70
2023-03-04T19:56:08.311Z,3.40
2023-03-04T19:59:12.298Z,1.60
2023-03-04T20:02:16.717Z,1.70
2023-03-04T20:05:20.843Z,1.80
2023-03-04T20:08:24.900Z,1.60
2023-03-04T20:11:30.348Z,1.70
2023-03-04T20:14:36.504Z,1.80
2023-03-04T20:17:40.431Z,1.70
2023-03-04T20:20:44.449Z,2.30
2023-03-04T20:23:48.515Z,2.60
2023-03-04T20:26:53.321Z,2.00
2023-03-04T20:29:58.149Z,2.10
2023-03-04T20:33:02.248Z,2.40
2023-03-04T20:36:06.360Z,2.00
2023-03-04T20:39:26.981Z,2.10
2023-03-04T20:42:32.246Z,2.50
2023-03-04T20:45:38.770Z,2.70
2023-03-04T20:48:43.410Z,2.70
2023-03-04T20:54:51.448Z,2.80
2023-03-04T20:57:55.362Z,2.00
2023-03-04T21:00:59.250Z,3.20
2023-03-04T21:04:04.765Z,2.80
2023-03-04T21:07:08.861Z,3.20
2023-03-04T21:10:12.787Z,3.10
2023-03-04T21:13:20.152Z,2.50
2023-03-04T21:16:27.218Z,3.20
2023-03-04T21:19:34.428Z,3.00
2023-03-04T21:22:38.876Z,3.00
2023-03-04T21:25:44.104Z,3.10
2023-03-04T21:28:48.744Z,3.00
2023-03-04T21:31:55.215Z,2.70
2023-03-04T21:34:59.228Z,3.70
2023-03-04T21:38:03.207Z,3.70
2023-03-04T21:41:19.191Z,4.30
2023-03-04T21:44:28.665Z,4.90
2023-03-04T21:47:37.535Z,5.00
2023-03-04T21:50:41.646Z,4.20
2023-03-04T21:53:45.870Z,5.80
2023-03-04T21:56:50.428Z,5.40
2023-03-04T21:59:54.418Z,5.40
2023-03-04T22:02:58.435Z,3.40
2023-03-04T22:06:07.602Z,4.40
2023-03-04T22:09:13.021Z,5.00
2023-03-04T22:12:19.449Z,2.10
2023-03-04T22:15:23.642Z,4.00
2023-03-04T22:18:28.546Z,4.80
2023-03-04T22:21:32.672Z,3.70
2023-03-04T22:24:36.688Z,4.00
2023-03-04T22:27:40.703Z,3.90
2023-03-04T22:30:44.693Z,5.00
2023-03-04T22:33:48.639Z,3.80
2023-03-04T22:36:52.575Z,3.30
2023-03-04T22:39:57.388Z,3.50
2023-03-04T22:43:01.277Z,3.80
2023-03-04T22:46:21.191Z,3.80
2023-03-04T22:49:25.123Z,4.00
2023-03-04T22:52:29.115Z,3.40
2023-03-04T22:55:33.203Z,4.40
2023-03-04T22:58:37.753Z,3.80
2023-03-04T23:01:41.916Z,3.10
2023-03-04T23:04:46.318Z,3.40
2023-03-04T23:07:51.400Z,3.30
2023-03-04T23:10:55.556Z,2.90
2023-03-04T23:14:02.183Z,3.20
2023-03-04T23:17:06.349Z,3.20
2023-03-04T23:20:17.771Z,4.60
2023-03-04T23:23:21.759Z,3.90
2023-03-04T23:26:29.157Z,5.50
2023-03-04T23:29:33.171Z,4.50
2023-03-04T23:32:37.243Z,2.80
2023-03-04T23:35:41.550Z,3.90
2023-03-04T23:38:47.369Z,3.40
2023-03-04T23:41:51.380Z,4.10
2023-03-04T23:44:55.376Z,5.30
2023-03-04T23:47:59.623Z,5.10
2023-03-04T23:51:04.349Z,4.90
2023-03-04T23:54:08.570Z,5.00
2023-03-04T23:57:12.517Z,5.20
